PROFILE

 METAR AND TAF INFORMATION
ADDS - METARS form results

(0854 UTC 18 May 2022)
http://aviationweather.gov/metar/data/
 
YSCB 180830Z AUTO 00000KT 9999 // NCD 06/M01 Q1022
YSCB 180800Z AUTO 33008KT 9999 // NCD 09/01 Q1020
TAF YSCB 180830Z 1809/1906 30010KT CAVOK FM181200 VRB03KT CAVOK FM190100 20008KT CAVOK PROB30 1815/1823 0500 FG BKN001 

 AIRPORT MAP

 RUNWAY INFORMATION
Runway 12 Runway length 5509 ft Runway width 148 ft
Runway elevation 1849 ft Runway displaced threshold 0 ft Runway heading 130
Runway 30 Runway length 5509 ft Runway width 148 ft
Runway elevation 1886 ft Runway displaced threshold 214 ft Runway heading 310
Runway 17 Runway length 10771 ft Runway width 148 ft
Runway elevation 1874 ft Runway displaced threshold 0 ft Runway heading 180
Runway 35 Runway length 10771 ft Runway width 148 ft
Runway elevation 1870 ft Runway displaced threshold 1968 ft Runway heading 360

 AIRPORT FREQUENCIES
Type APP/DEP EA Name Approach/D Frequency 124.5 MHZ
Type ATIS/VOR Name ATIS AH Frequency 116.7 MHZ
Type APP/DEP WE Name Approach/D Frequency 125.9 MHZ
Type GCCD Name GND CLNC D Frequency 121.7 MHZ
Type TWR/CTAF Name TWR (CTAF Frequency 118.7 MHZ
Type ATIS Name ATIS Frequency 127.45 MHZ

 AIRPORT NEAR NAVIGATION AIDS
Type VOR-DME Name Canberra Frequency 116700 KHZ
Type NDB Name Canberra Frequency 263 KHZ
Type NDB Name Church Creek Frequency 248 KHZ